Time;durP1;ratioP1;P1;durP2;ratioP2;P2;SDS_P1;SDS_P2;PMS_P1;PMS_P2;Temp;Humidity;BMP_temperature;BMP_pressure;BME280_temperature;BME280_humidity;BME280_pressure;Samples;Min_cycle;Max_cycle;Signal;HPM_P1;HPM_P2
2023/03/01 00:00:52;;;;;;;11.00;3.70;;;;;;;-0.48;95.10;101136.80;109916;1248;71709;-75
2023/03/01 00:03:42;;;;;;;10.90;3.70;;;;;;;-0.45;95.12;101132.92;109898;1248;58077;-76
2023/03/01 00:06:30;;;;;;;11.80;3.90;;;;;;;-0.42;95.12;101131.49;109930;1248;58697;-77
2023/03/01 00:09:19;;;;;;;13.90;3.80;;;;;;;-0.42;95.36;101125.36;109689;1249;72376;-76
2023/03/01 00:12:07;;;;;;;15.30;4.00;;;;;;;-0.41;95.35;101120.48;109726;1248;67704;-77
2023/03/01 00:14:56;;;;;;;13.50;3.90;;;;;;;-0.40;95.73;101113.14;109524;1248;72205;-77
2023/03/01 00:17:44;;;;;;;11.30;4.30;;;;;;;-0.38;95.40;101115.89;109762;1248;58097;-76
2023/03/01 00:20:32;;;;;;;11.90;3.50;;;;;;;-0.37;95.67;101109.27;108971;1248;1002096;-77
2023/03/01 00:23:22;;;;;;;13.40;4.40;;;;;;;-0.38;95.32;101106.65;109733;1248;73926;-75
2023/03/01 00:26:13;;;;;;;10.60;4.10;;;;;;;-0.37;95.52;101106.64;109794;1248;68036;-76
2023/03/01 00:29:02;;;;;;;12.20;4.00;;;;;;;-0.37;95.74;101105.59;108785;1250;1002324;-75
2023/03/01 00:31:50;;;;;;;12.30;3.80;;;;;;;-0.37;95.87;101108.89;109632;1254;58072;-76
2023/03/01 00:34:38;;;;;;;11.60;3.70;;;;;;;-0.35;95.78;101105.22;109432;1250;58725;-76
2023/03/01 00:37:26;;;;;;;9.10;3.10;;;;;;;-0.34;95.88;101098.05;109706;1249;73806;-75
2023/03/01 00:40:16;;;;;;;12.20;4.60;;;;;;;-0.33;96.18;101096.98;109715;1251;66444;-75
2023/03/01 00:43:04;;;;;;;12.20;3.90;;;;;;;-0.32;96.22;101097.14;109633;1251;72606;-73
2023/03/01 00:45:52;;;;;;;10.80;4.00;;;;;;;-0.32;96.41;101091.57;109575;1251;58126;-75
2023/03/01 00:48:41;;;;;;;10.80;4.00;;;;;;;-0.32;96.69;101088.61;109219;1254;61362;-74
2023/03/01 00:51:30;;;;;;;13.10;4.50;;;;;;;-0.32;96.90;101081.45;109497;1253;74249;-75
2023/03/01 00:54:18;;;;;;;12.80;4.10;;;;;;;-0.36;96.95;101077.14;109372;1254;66344;-73
2023/03/01 00:57:08;;;;;;;11.20;3.90;;;;;;;-0.32;96.93;101088.25;109526;1253;72739;-76
2023/03/01 00:59:56;;;;;;;12.30;3.90;;;;;;;-0.32;96.76;101090.69;109479;1251;58641;-73
2023/03/01 01:02:45;;;;;;;13.50;4.50;;;;;;;-0.32;96.90;101093.84;109535;1254;58729;-76
2023/03/01 01:05:36;;;;;;;15.40;5.10;;;;;;;-0.32;96.73;101093.99;109345;1251;73825;-74
2023/03/01 01:08:24;;;;;;;12.40;4.70;;;;;;;-0.31;96.64;101093.98;109353;1251;67817;-76
2023/03/01 01:11:13;;;;;;;13.30;4.60;;;;;;;-0.30;96.73;101090.33;109459;1251;72677;-76
2023/03/01 01:14:01;;;;;;;14.40;4.30;;;;;;;-0.28;97.08;101088.88;109411;1251;58169;-73
2023/03/01 01:16:49;;;;;;;12.20;3.40;;;;;;;-0.25;97.84;101090.06;109579;1251;61232;-72
2023/03/01 01:19:37;;;;;;;13.80;4.30;;;;;;;-0.23;97.97;101088.46;109750;1248;74583;-73
2023/03/01 01:22:25;;;;;;;12.30;4.10;;;;;;;-0.21;97.77;101090.34;109844;1248;68203;-73
2023/03/01 01:25:13;;;;;;;11.50;4.90;;;;;;;-0.21;97.76;101091.92;109835;1250;72323;-74
2023/03/01 01:28:01;;;;;;;16.30;5.80;;;;;;;-0.21;98.02;101092.94;109682;1248;59783;-75
2023/03/01 01:30:50;;;;;;;15.60;5.30;;;;;;;-0.19;97.98;101092.58;109738;1248;58557;-76
2023/03/01 01:33:38;;;;;;;15.20;5.20;;;;;;;-0.17;98.10;101095.15;109760;1248;75040;-73
2023/03/01 01:36:27;;;;;;;12.20;5.10;;;;;;;-0.16;98.16;101085.38;109959;1248;68640;-74
2023/03/01 01:39:16;;;;;;;15.00;5.40;;;;;;;-0.15;98.28;101082.55;109758;1248;72616;-76
2023/03/01 01:42:05;;;;;;;14.90;5.40;;;;;;;-0.16;98.25;101074.03;109121;1248;1002345;-75
2023/03/01 01:45:40;;;;;;;13.50;4.20;;;;;;;-0.17;98.01;101065.66;109723;1247;60045;-74
2023/03/01 01:48:46;;;;;;;16.70;5.20;;;;;;;-0.18;98.31;101065.52;109735;1248;72486;-75
2023/03/01 01:51:43;;;;;;;15.70;5.10;;;;;;;-0.19;98.26;101063.42;109762;1248;67844;-74
2023/03/01 01:54:36;;;;;;;13.70;5.40;;;;;;;-0.22;99.01;101061.76;109807;1248;71449;-73
2023/03/01 01:57:38;;;;;;;14.20;5.70;;;;;;;-0.23;98.92;101055.48;109852;1248;58113;-73
2023/03/01 02:00:29;;;;;;;11.90;3.90;;;;;;;-0.25;98.97;101057.09;109713;1248;60062;-73
2023/03/01 02:03:28;;;;;;;12.70;4.60;;;;;;;-0.27;99.51;101052.95;109917;1248;74406;-72
2023/03/01 02:06:29;;;;;;;12.70;4.40;;;;;;;-0.29;99.47;101048.45;109811;1248;68626;-73
2023/03/01 02:09:21;;;;;;;15.10;5.60;;;;;;;-0.31;99.95;101042.39;109700;1248;72380;-73
2023/03/01 02:12:09;;;;;;;12.40;5.60;;;;;;;-0.32;100.00;101042.04;109826;1248;58086;-73
2023/03/01 02:14:57;;;;;;;19.50;6.50;;;;;;;-0.32;100.00;101039.59;109920;1248;60069;-73
2023/03/01 02:17:45;;;;;;;14.70;5.20;;;;;;;-0.31;100.00;101040.27;109803;1248;71477;-72
2023/03/01 02:21:14;;;;;;;14.70;5.50;;;;;;;-0.30;100.00;101041.48;109843;1248;66587;-71
2023/03/01 02:24:26;;;;;;;15.80;5.90;;;;;;;-0.30;100.00;101044.27;109829;1248;73928;-74
2023/03/01 02:27:16;;;;;;;16.10;5.80;;;;;;;-0.30;100.00;101046.02;109814;1248;58693;-74
2023/03/01 02:30:06;;;;;;;19.70;6.50;;;;;;;-0.28;100.00;101038.48;109820;1248;60046;-76
2023/03/01 02:33:02;;;;;;;13.80;5.70;;;;;;;-0.27;100.00;101034.46;109905;1248;72356;-76
2023/03/01 02:35:52;;;;;;;16.80;6.20;;;;;;;-0.27;100.00;101025.05;109852;1248;66614;-75
2023/03/01 02:38:42;;;;;;;14.20;5.70;;;;;;;-0.25;100.00;101024.47;109645;1248;71463;-74
2023/03/01 02:41:36;;;;;;;16.70;5.90;;;;;;;-0.24;100.00;101025.85;109820;1248;58408;-75
2023/03/01 02:44:24;;;;;;;21.20;7.80;;;;;;;-0.25;100.00;101026.04;109693;1248;60311;-75
2023/03/01 02:47:12;;;;;;;18.10;6.80;;;;;;;-0.23;100.00;101022.00;109917;1248;74911;-74
2023/03/01 02:50:01;;;;;;;22.60;7.80;;;;;;;-0.22;100.00;101021.45;109856;1248;67144;-74
2023/03/01 02:53:58;;;;;;;19.50;6.80;;;;;;;-0.20;100.00;101023.17;109953;1248;71796;-75
2023/03/01 02:56:48;;;;;;;16.20;6.50;;;;;;;-0.18;100.00;101024.86;109794;1248;58146;-74
2023/03/01 02:59:39;;;;;;;17.40;6.80;;;;;;;-0.19;100.00;101014.08;109788;1248;61653;-75
2023/03/01 03:02:36;;;;;;;19.90;7.40;;;;;;;-0.20;100.00;101010.26;108987;1247;1002392;-74
2023/03/01 03:05:32;;;;;;;20.50;8.40;;;;;;;-0.21;100.00;101003.30;108974;1248;1002338;-75
2023/03/01 03:08:23;;;;;;;22.60;7.70;;;;;;;-0.21;100.00;101004.52;109857;1248;71321;-73
2023/03/01 03:11:12;;;;;;;20.40;8.60;;;;;;;-0.23;100.00;101009.26;109069;1249;1002337;-75
2023/03/01 03:14:00;;;;;;;21.30;9.20;;;;;;;-0.24;100.00;101002.65;109878;1249;59234;-72
2023/03/01 03:16:49;;;;;;;20.10;7.40;;;;;;;-0.24;100.00;100997.77;108883;1250;1002449;-73
2023/03/01 03:19:37;;;;;;;28.40;9.40;;;;;;;-0.23;100.00;101000.54;109816;1249;68933;-72
2023/03/01 03:22:28;;;;;;;18.70;7.10;;;;;;;-0.23;100.00;100997.39;109838;1249;74063;-73
2023/03/01 03:25:18;;;;;;;20.70;7.10;;;;;;;-0.23;100.00;100994.61;109864;1249;58088;-74
2023/03/01 03:28:10;;;;;;;15.90;6.40;;;;;;;-0.23;100.00;100990.77;109110;1249;1002170;-74
2023/03/01 03:30:58;;;;;;;20.60;7.60;;;;;;;-0.24;100.00;100992.52;108988;1250;1002092;-73
2023/03/01 03:33:46;;;;;;;17.90;7.00;;;;;;;-0.24;100.00;100991.13;109825;1250;68566;-73
2023/03/01 03:36:33;;;;;;;22.90;8.50;;;;;;;-0.22;100.00;100987.62;109852;1249;72277;-72
2023/03/01 03:39:21;;;;;;;21.90;8.70;;;;;;;-0.20;100.00;100991.92;109819;1249;59492;-72
2023/03/01 03:42:09;;;;;;;26.60;7.90;;;;;;;-0.17;100.00;100993.27;109718;1248;60008;-73
2023/03/01 03:44:57;;;;;;;19.70;7.50;;;;;;;-0.14;100.00;100984.69;109903;1248;74809;-72
2023/03/01 03:47:45;;;;;;;18.80;7.50;;;;;;;-0.12;100.00;100984.47;109846;1248;67701;-70
2023/03/01 03:50:34;;;;;;;19.30;7.70;;;;;;;-0.12;100.00;100984.48;109726;1248;71320;-70
2023/03/01 03:53:24;;;;;;;20.30;7.70;;;;;;;-0.14;100.00;100983.11;109935;1248;58073;-71
2023/03/01 03:56:12;;;;;;;17.00;7.10;;;;;;;-0.16;100.00;100977.57;109933;1248;61345;-71
2023/03/01 03:59:00;;;;;;;20.10;6.80;;;;;;;-0.17;100.00;100968.34;109937;1248;73655;-72
2023/03/01 04:01:48;;;;;;;17.50;7.70;;;;;;;-0.18;100.00;100959.98;109954;1248;67974;-73
2023/03/01 04:04:37;;;;;;;20.70;7.30;;;;;;;-0.18;100.00;100954.91;109722;1248;72552;-72
2023/03/01 04:07:25;;;;;;;19.80;7.50;;;;;;;-0.18;100.00;100960.85;109911;1248;58100;-71
2023/03/01 04:10:18;;;;;;;18.40;6.80;;;;;;;-0.17;100.00;100963.63;109694;1248;59932;-72
2023/03/01 04:13:09;;;;;;;15.30;5.90;;;;;;;-0.18;100.00;100955.27;109962;1248;74876;-72
2023/03/01 04:15:56;;;;;;;23.20;8.90;;;;;;;-0.19;100.00;100957.90;109716;1248;69035;-72
2023/03/01 04:18:45;;;;;;;20.10;7.90;;;;;;;-0.18;100.00;100958.58;109887;1248;73680;-72
2023/03/01 04:21:33;;;;;;;16.80;6.60;;;;;;;-0.18;100.00;100956.51;109741;1248;58013;-72
2023/03/01 04:24:22;;;;;;;19.60;8.20;;;;;;;-0.18;100.00;100958.40;109722;1248;58777;-72
2023/03/01 04:27:12;;;;;;;21.50;9.10;;;;;;;-0.16;100.00;100959.96;109942;1248;73639;-74
2023/03/01 04:30:00;;;;;;;27.20;9.60;;;;;;;-0.16;100.00;100956.80;109938;1248;69486;-72
2023/03/01 04:32:50;;;;;;;23.20;9.10;;;;;;;-0.13;100.00;100958.85;109745;1248;70480;-72
2023/03/01 04:35:38;;;;;;;26.10;10.70;;;;;;;-0.14;100.00;100952.91;109934;1248;58169;-72
2023/03/01 04:38:27;;;;;;;20.70;8.10;;;;;;;-0.14;100.00;100951.70;109808;1249;60277;-71
2023/03/01 04:41:18;;;;;;;25.70;9.30;;;;;;;-0.15;100.00;100953.65;109265;1247;1002420;-73
2023/03/01 04:44:08;;;;;;;21.20;7.90;;;;;;;-0.17;100.00;100954.55;109142;1248;1002132;-73
2023/03/01 04:46:56;;;;;;;25.00;8.10;;;;;;;-0.19;100.00;100948.64;109905;1248;72543;-73
2023/03/01 04:49:44;;;;;;;18.00;7.10;;;;;;;-0.20;100.00;100950.95;109926;1248;58170;-72
2023/03/01 04:52:32;;;;;;;18.70;6.70;;;;;;;-0.21;100.00;100953.23;109920;1246;60291;-71
2023/03/01 04:55:20;;;;;;;21.70;8.60;;;;;;;-0.24;100.00;100950.15;109955;1250;74703;-72
2023/03/01 04:58:08;;;;;;;19.10;6.20;;;;;;;-0.24;100.00;100948.74;110051;1246;67760;-71
2023/03/01 05:00:56;;;;;;;19.00;8.40;;;;;;;-0.24;100.00;100956.24;109853;1246;72183;-72
2023/03/01 05:03:50;;;;;;;24.60;8.80;;;;;;;-0.24;100.00;100959.20;110048;1246;58073;-72
2023/03/01 05:06:39;;;;;;;18.40;7.30;;;;;;;-0.24;100.00;100962.70;109931;1246;58428;-71
2023/03/01 05:09:27;;;;;;;22.30;7.40;;;;;;;-0.27;100.00;100958.05;110042;1246;72206;-71
2023/03/01 05:12:15;;;;;;;26.70;9.40;;;;;;;-0.27;100.00;100958.06;110066;1246;67896;-72
2023/03/01 05:15:06;;;;;;;27.00;8.50;;;;;;;-0.28;100.00;100961.05;110007;1246;71813;-73
2023/03/01 05:18:00;;;;;;;23.40;8.90;;;;;;;-0.29;100.00;100957.04;109918;1246;59685;-72
2023/03/01 05:21:06;;;;;;;23.00;9.60;;;;;;;-0.28;100.00;100962.96;109886;1246;61045;-74
2023/03/01 05:23:54;;;;;;;23.80;9.30;;;;;;;-0.28;100.00;100959.46;109950;1247;74795;-72
2023/03/01 05:26:41;;;;;;;21.90;7.70;;;;;;;-0.26;100.00;100952.64;110001;1246;67605;-72
2023/03/01 05:29:31;;;;;;;21.20;9.00;;;;;;;-0.27;100.00;100953.34;109903;1246;73301;-72
2023/03/01 05:32:19;;;;;;;20.30;7.30;;;;;;;-0.28;100.00;100951.27;109823;1246;58146;-74
2023/03/01 05:35:07;;;;;;;23.80;8.90;;;;;;;-0.25;100.00;100952.95;109886;1246;58109;-72
2023/03/01 05:37:55;;;;;;;19.40;7.00;;;;;;;-0.24;100.00;100951.54;109974;1246;74805;-75
2023/03/01 05:40:46;;;;;;;19.50;8.10;;;;;;;-0.25;100.00;100956.27;109989;1246;67867;-73
2023/03/01 05:43:34;;;;;;;19.40;7.90;;;;;;;-0.25;100.00;100962.90;109815;1248;72318;-73
2023/03/01 05:46:24;;;;;;;23.10;8.10;;;;;;;-0.24;100.00;100960.45;109861;1248;58128;-72
2023/03/01 05:49:15;;;;;;;17.70;7.50;;;;;;;-0.25;100.00;100952.27;109878;1248;61029;-72
2023/03/01 05:52:04;;;;;;;22.30;9.50;;;;;;;-0.22;100.00;100949.95;109926;1248;74870;-70
2023/03/01 05:54:52;;;;;;;22.00;8.80;;;;;;;-0.19;100.00;100947.25;109893;1249;66650;-71
2023/03/01 05:57:40;;;;;;;17.10;6.80;;;;;;;-0.16;100.00;100947.75;109824;1248;72293;-71
2023/03/01 06:00:30;;;;;;;17.90;8.10;;;;;;;-0.16;100.00;100952.10;109877;1248;58136;-75
2023/03/01 06:03:18;;;;;;;22.90;8.20;;;;;;;-0.18;100.00;100950.90;109649;1248;58692;-74
2023/03/01 06:06:06;;;;;;;21.40;7.70;;;;;;;-0.19;100.00;100955.81;109679;1248;72350;-75
2023/03/01 06:08:55;;;;;;;20.40;7.70;;;;;;;-0.18;100.00;100959.80;109719;1248;66553;-73
2023/03/01 06:11:43;;;;;;;19.40;8.20;;;;;;;-0.17;100.00;100961.88;109664;1248;72503;-76
2023/03/01 06:14:32;;;;;;;20.80;8.00;;;;;;;-0.15;100.00;100963.06;109887;1248;58527;-75
2023/03/01 06:17:20;;;;;;;17.10;6.70;;;;;;;-0.12;100.00;100965.81;109912;1248;58726;-72
2023/03/01 06:20:21;;;;;;;17.30;6.60;;;;;;;-0.07;100.00;100973.72;109866;1248;74039;-76
2023/03/01 06:23:09;;;;;;;19.70;7.60;;;;;;;-0.05;100.00;100971.08;109664;1248;66349;-73
2023/03/01 06:25:57;;;;;;;20.30;8.70;;;;;;;-0.01;100.00;100975.55;109853;1248;73705;-74
2023/03/01 06:28:45;;;;;;;19.90;7.90;;;;;;;0.03;100.00;100971.63;109751;1248;58554;-72
2023/03/01 06:31:34;;;;;;;21.70;8.40;;;;;;;0.09;100.00;100979.36;109890;1248;60450;-72
2023/03/01 06:34:22;;;;;;;15.50;6.60;;;;;;;0.16;100.00;100979.90;108914;1248;1002635;-73
2023/03/01 06:37:10;;;;;;;19.50;6.70;;;;;;;0.21;100.00;100985.91;109733;1248;67859;-72
2023/03/01 06:39:58;;;;;;;19.20;7.00;;;;;;;0.24;100.00;100986.92;109127;1248;1002306;-74
2023/03/01 06:42:49;;;;;;;18.00;6.70;;;;;;;0.29;100.00;100991.85;109934;1246;58223;-73
2023/03/01 06:45:37;;;;;;;19.70;7.70;;;;;;;0.34;100.00;100994.05;109813;1248;60220;-73
2023/03/01 06:48:25;;;;;;;20.30;7.80;;;;;;;0.40;100.00;100995.67;109910;1248;74703;-74
2023/03/01 06:51:13;;;;;;;17.90;7.10;;;;;;;0.47;100.00;101000.94;109909;1248;68675;-73
2023/03/01 06:54:04;;;;;;;16.80;6.50;;;;;;;0.56;100.00;101001.61;109642;1252;71504;-72
2023/03/01 06:56:53;;;;;;;18.20;6.70;;;;;;;0.66;100.00;101000.17;109738;1248;58542;-74
2023/03/01 06:59:43;;;;;;;17.50;5.70;;;;;;;0.74;100.00;100997.39;109765;1248;58696;-71
2023/03/01 07:02:31;;;;;;;21.90;7.80;;;;;;;0.78;100.00;100995.02;109824;1248;72940;-72
2023/03/01 07:05:20;;;;;;;17.60;7.20;;;;;;;0.84;100.00;100990.17;109897;1248;66686;-71
2023/03/01 07:08:08;;;;;;;18.80;7.00;;;;;;;0.95;99.93;100997.78;109874;1248;72445;-72
2023/03/01 07:11:01;;;;;;;16.50;6.60;;;;;;;1.06;99.63;100995.27;109838;1248;58581;-73
2023/03/01 07:13:49;;;;;;;17.10;7.30;;;;;;;1.17;99.07;100997.98;109936;1248;58854;-72
2023/03/01 07:16:37;;;;;;;20.10;8.40;;;;;;;1.30;98.43;100996.27;109909;1248;74509;-74
2023/03/01 07:19:26;;;;;;;17.70;8.00;;;;;;;1.43;98.17;100999.96;109172;1247;1003402;-73
2023/03/01 07:22:14;;;;;;;18.50;7.60;;;;;;;1.60;97.54;101000.42;109755;1248;71181;-73
2023/03/01 07:25:02;;;;;;;18.30;7.20;;;;;;;1.80;96.66;101002.02;109927;1248;59794;-69
2023/03/01 07:27:52;;;;;;;18.20;7.90;;;;;;;2.03;95.59;100991.59;109879;1248;61691;-70
2023/03/01 07:30:40;;;;;;;16.10;6.90;;;;;;;2.25;94.07;100990.80;109821;1248;74806;-74
2023/03/01 07:33:28;;;;;;;15.00;7.20;;;;;;;2.59;93.31;100987.02;109890;1248;66840;-73
2023/03/01 07:36:16;;;;;;;16.60;7.20;;;;;;;3.03;91.80;100990.39;109869;1248;71229;-73
2023/03/01 07:39:04;;;;;;;15.90;6.80;;;;;;;3.42;89.71;100988.79;109831;1248;58468;-74
2023/03/01 07:41:52;;;;;;;17.20;7.40;;;;;;;3.81;87.17;100983.27;109851;1248;58984;-73
2023/03/01 07:44:42;;;;;;;16.20;7.10;;;;;;;4.07;84.78;100979.04;109829;1248;74536;-74
2023/03/01 07:47:30;;;;;;;14.70;6.50;;;;;;;4.49;84.16;100984.17;109881;1248;68812;-74
2023/03/01 07:50:18;;;;;;;13.70;6.20;;;;;;;4.91;81.04;100980.27;109859;1248;73738;-76
2023/03/01 07:53:06;;;;;;;13.70;7.20;;;;;;;5.58;79.84;100984.37;109719;1248;59488;-76
2023/03/01 07:56:12;;;;;;;13.30;5.90;;;;;;;6.47;75.78;100975.45;107603;1246;1014880;-75
2023/03/01 07:59:00;;;;;;;15.40;7.10;;;;;;;7.38;72.80;100973.20;109833;1246;74572;-76
2023/03/01 08:01:49;;;;;;;12.40;6.20;;;;;;;8.44;67.86;100965.44;110131;1246;67725;-74
2023/03/01 08:04:37;;;;;;;26.80;15.30;;;;;;;9.49;64.97;100961.82;109903;1248;72628;-75
2023/03/01 08:07:25;;;;;;;18.10;9.70;;;;;;;10.57;60.39;100948.78;109987;1248;58014;-73
2023/03/01 08:10:13;;;;;;;14.10;7.30;;;;;;;11.67;57.56;100942.27;109965;1248;59956;-75
2023/03/01 08:13:01;;;;;;;13.50;7.50;;;;;;;12.71;53.71;100939.98;110004;1246;75550;-73
2023/03/01 08:15:49;;;;;;;13.90;7.80;;;;;;;13.59;50.78;100937.54;110028;1246;67917;-74
2023/03/01 08:18:37;;;;;;;17.90;8.60;;;;;;;14.50;47.47;100936.16;110006;1246;71524;-73
2023/03/01 08:21:25;;;;;;;12.90;7.30;;;;;;;15.34;45.45;100935.09;109889;1246;58114;-73
2023/03/01 08:24:13;;;;;;;14.10;7.90;;;;;;;15.93;42.59;100927.72;109979;1246;61601;-72
2023/03/01 08:27:02;;;;;;;13.60;7.70;;;;;;;16.69;41.13;100925.02;110049;1246;73570;-73
2023/03/01 08:29:50;;;;;;;12.40;6.80;;;;;;;17.29;38.65;100929.44;109910;1247;68848;-73
2023/03/01 08:32:39;;;;;;;13.10;7.70;;;;;;;17.49;37.50;100926.41;109838;1248;72353;-74
2023/03/01 08:35:27;;;;;;;13.40;7.70;;;;;;;17.71;37.20;100924.99;109676;1248;58117;-73
2023/03/01 08:38:16;;;;;;;14.00;8.10;;;;;;;18.17;36.07;100917.42;109873;1248;59191;-76
2023/03/01 08:41:04;;;;;;;13.80;8.00;;;;;;;18.39;34.65;100917.02;109921;1247;73854;-74
2023/03/01 08:43:58;;;;;;;14.50;8.10;;;;;;;18.79;34.69;100911.59;109921;1248;68177;-74
2023/03/01 08:46:47;;;;;;;13.30;7.80;;;;;;;19.28;33.71;100913.55;109867;1252;72413;-75
2023/03/01 08:49:35;;;;;;;15.80;9.10;;;;;;;19.43;32.24;100912.98;109803;1248;58287;-73
2023/03/01 08:52:24;;;;;;;14.60;8.50;;;;;;;19.53;32.17;100906.40;109882;1248;58699;-75
2023/03/01 08:55:12;;;;;;;13.90;8.50;;;;;;;19.73;32.20;100909.20;109892;1248;73601;-75
2023/03/01 08:57:59;;;;;;;13.20;7.70;;;;;;;20.04;31.54;100902.95;109805;1248;67717;-75
2023/03/01 09:00:47;;;;;;;14.30;8.40;;;;;;;20.39;31.03;100901.13;109812;1248;72609;-73
2023/03/01 09:03:36;;;;;;;13.40;8.50;;;;;;;20.61;30.51;100908.55;109943;1246;58192;-76
2023/03/01 09:06:24;;;;;;;15.00;8.90;;;;;;;20.82;29.79;100913.66;109930;1246;60100;-74
2023/03/01 09:09:16;;;;;;;15.00;9.20;;;;;;;21.01;29.99;100920.69;109995;1246;72554;-75
2023/03/01 09:12:04;;;;;;;20.20;13.20;;;;;;;21.20;29.23;100916.21;110069;1246;67799;-75
2023/03/01 09:14:52;;;;;;;15.20;9.40;;;;;;;21.27;28.90;100918.26;109858;1246;72419;-74
2023/03/01 09:17:40;;;;;;;14.60;8.10;;;;;;;21.30;28.92;100919.66;109955;1246;58159;-74
2023/03/01 09:20:30;;;;;;;14.50;8.80;;;;;;;21.31;28.59;100920.99;109990;1246;59332;-73
2023/03/01 09:23:18;;;;;;;14.60;8.70;;;;;;;21.47;28.68;100921.23;110004;1246;74756;-76
2023/03/01 09:26:09;;;;;;;14.70;8.10;;;;;;;21.44;28.22;100928.25;110015;1246;66387;-74
2023/03/01 09:28:57;;;;;;;14.50;8.40;;;;;;;21.45;28.33;100922.56;109772;1246;71067;-76
2023/03/01 09:31:45;;;;;;;14.30;8.60;;;;;;;21.58;28.07;100918.09;109996;1246;58311;-72
2023/03/01 09:35:00;;;;;;;14.10;8.60;;;;;;;21.50;27.88;100921.23;109986;1250;58976;-76
2023/03/01 09:37:44;;;;;;;14.20;9.00;;;;;;;21.33;28.02;100917.16;109959;1246;73788;-73
2023/03/01 09:40:33;;;;;;;14.50;8.60;;;;;;;21.25;28.21;100916.59;109833;1246;67594;-75
2023/03/01 09:43:39;;;;;;;11.70;7.60;;;;;;;21.37;28.33;100913.81;110036;1246;72562;-76
2023/03/01 09:46:27;;;;;;;14.60;8.90;;;;;;;21.60;27.99;100908.14;109861;1246;58042;-72
2023/03/01 09:49:25;;;;;;;12.50;8.20;;;;;;;21.81;27.44;100902.55;109863;1246;60157;-74
2023/03/01 09:52:27;;;;;;;14.10;7.90;;;;;;;22.07;27.33;100907.77;109881;1248;74035;-75
2023/03/01 09:55:26;;;;;;;12.30;7.80;;;;;;;22.43;26.84;100904.96;109837;1246;67656;-74
2023/03/01 09:58:57;;;;;;;12.20;7.70;;;;;;;22.83;26.23;100906.61;110002;1246;71202;-73
2023/03/01 10:01:57;;;;;;;12.20;7.00;;;;;;;23.13;25.84;100907.55;109824;1246;58018;-74
2023/03/01 10:04:51;;;;;;;11.50;7.00;;;;;;;23.40;25.15;100919.55;109996;1248;58679;-76
2023/03/01 10:07:54;;;;;;;12.10;7.50;;;;;;;23.66;25.06;100911.70;109870;1246;73677;-73
2023/03/01 10:10:47;;;;;;;14.10;8.40;;;;;;;24.16;24.59;100915.92;109917;1246;66535;-75
2023/03/01 10:13:52;;;;;;;14.20;8.50;;;;;;;24.12;24.44;100916.53;109900;1246;70324;-74
2023/03/01 10:17:09;;;;;;;13.70;7.70;;;;;;;23.91;24.22;100912.63;109944;1246;58137;-75
2023/03/01 10:20:15;;;;;;;13.40;7.90;;;;;;;23.78;24.52;100909.48;110059;1246;60130;-77
2023/03/01 10:23:04;;;;;;;13.00;7.90;;;;;;;23.80;24.57;100899.20;109916;1246;72296;-76
2023/03/01 10:26:23;;;;;;;12.10;7.50;;;;;;;23.92;24.40;100900.15;110003;1246;68673;-75
2023/03/01 10:29:13;;;;;;;11.40;6.60;;;;;;;23.89;24.06;100902.62;109882;1246;72750;-75
2023/03/01 10:32:06;;;;;;;11.40;7.10;;;;;;;23.94;24.24;100905.36;109989;1246;58155;-74
2023/03/01 10:34:55;;;;;;;11.30;6.60;;;;;;;24.13;23.79;100902.66;109875;1246;61315;-75
2023/03/01 10:38:04;;;;;;;13.30;7.30;;;;;;;24.05;23.76;100899.46;109900;1246;74718;-77
2023/03/01 10:40:58;;;;;;;13.00;7.10;;;;;;;23.96;24.14;100906.13;110003;1246;69011;-76
2023/03/01 10:43:51;;;;;;;11.40;6.90;;;;;;;23.83;24.57;100900.87;109671;1246;73361;-73
2023/03/01 10:46:39;;;;;;;10.90;6.60;;;;;;;23.83;24.45;100896.25;109853;1246;58120;-74
2023/03/01 10:49:27;;;;;;;9.80;5.80;;;;;;;24.14;24.11;100897.41;109991;1246;60773;-78
2023/03/01 10:52:35;;;;;;;12.30;7.40;;;;;;;24.16;24.04;100902.83;109827;1246;73931;-78
2023/03/01 10:55:36;;;;;;;11.90;7.20;;;;;;;24.13;24.25;100901.58;109788;1246;68554;-76
2023/03/01 10:58:24;;;;;;;13.10;7.40;;;;;;;23.77;24.51;100899.55;109838;1246;73894;-76
2023/03/01 11:01:15;;;;;;;12.50;7.70;;;;;;;23.35;24.67;100899.29;109997;1246;58171;-75
2023/03/01 11:04:06;;;;;;;12.00;7.40;;;;;;;23.41;24.50;100900.39;110020;1246;60076;-75
2023/03/01 11:07:02;;;;;;;14.40;8.40;;;;;;;23.37;24.54;100899.77;110028;1246;72731;-77
2023/03/01 11:09:50;;;;;;;15.50;9.50;;;;;;;22.96;24.85;100895.86;110024;1246;67114;-79
2023/03/01 11:12:38;;;;;;;13.70;8.50;;;;;;;22.52;25.40;100897.77;109985;1246;72642;-76
2023/03/01 11:15:28;;;;;;;12.90;8.00;;;;;;;22.27;25.99;100902.25;109781;1246;59345;-75
2023/03/01 11:18:22;;;;;;;13.90;8.20;;;;;;;22.21;26.28;100897.09;109836;1246;61068;-75
2023/03/01 11:21:28;;;;;;;12.30;7.60;;;;;;;22.37;25.82;100893.02;110056;1246;73600;-76
2023/03/01 11:24:17;;;;;;;13.00;7.70;;;;;;;22.20;25.66;100889.28;110080;1246;66362;-74
2023/03/01 11:27:24;;;;;;;13.10;7.80;;;;;;;21.99;26.07;100887.63;109863;1246;71368;-74
2023/03/01 11:30:31;;;;;;;12.70;8.20;;;;;;;21.87;26.29;100885.56;109763;1246;58214;-76
2023/03/01 11:33:40;;;;;;;12.30;7.40;;;;;;;21.66;26.64;100879.65;109956;1246;61032;-79
2023/03/01 11:36:48;;;;;;;13.70;8.20;;;;;;;21.35;26.85;100868.44;109899;1247;74912;-76
2023/03/01 11:39:51;;;;;;;14.50;7.90;;;;;;;20.85;27.35;100864.13;109828;1246;68199;-75
2023/03/01 11:42:55;;;;;;;12.10;7.90;;;;;;;20.39;28.25;100865.38;109923;1246;73647;-76
2023/03/01 11:45:54;;;;;;;12.40;7.10;;;;;;;20.09;28.81;100866.08;110069;1246;58366;-74
2023/03/01 11:49:03;;;;;;;13.10;7.80;;;;;;;19.48;29.39;100867.67;109990;1246;58028;-78
2023/03/01 11:52:23;;;;;;;14.20;7.40;;;;;;;19.04;30.38;100863.55;110232;1246;72217;-78
2023/03/01 11:56:06;;;;;;;13.10;7.10;;;;;;;18.64;30.88;100871.95;110089;1246;66548;-76
2023/03/01 11:59:13;;;;;;;13.60;7.80;;;;;;;18.18;31.68;100874.28;110039;1246;72337;-78
2023/03/01 12:02:35;;;;;;;14.80;8.80;;;;;;;18.01;31.89;100872.54;109856;1246;58556;-76
2023/03/01 12:05:48;;;;;;;13.70;8.00;;;;;;;17.71;32.43;100873.33;110050;1246;61062;-77
2023/03/01 12:08:51;;;;;;;14.40;8.30;;;;;;;17.35;32.94;100876.88;109949;1246;73492;-77
2023/03/01 12:12:02;;;;;;;15.60;8.40;;;;;;;17.13;33.71;100876.48;109920;1246;68770;-76
2023/03/01 12:15:22;;;;;;;14.10;8.10;;;;;;;16.80;34.02;100879.19;110035;1250;73845;-76
2023/03/01 12:18:24;;;;;;;14.50;8.10;;;;;;;16.40;34.68;100874.62;109956;1246;58612;-77
2023/03/01 12:21:53;;;;;;;16.60;8.40;;;;;;;16.11;35.20;100870.73;109903;1246;59015;-76
2023/03/01 12:25:02;;;;;;;14.60;8.60;;;;;;;15.86;35.76;100865.91;110053;1246;73573;-76
2023/03/01 12:28:08;;;;;;;13.40;7.80;;;;;;;15.61;36.39;100862.12;109963;1246;68881;-79
2023/03/01 12:31:49;;;;;;;15.50;8.80;;;;;;;15.33;36.79;100860.80;110063;1246;72801;-76
2023/03/01 12:34:56;;;;;;;16.00;9.20;;;;;;;14.99;37.67;100857.56;109966;1247;58120;-77
2023/03/01 12:37:57;;;;;;;16.90;9.70;;;;;;;14.77;38.27;100856.49;110047;1246;58753;-75
2023/03/01 12:41:21;;;;;;;15.40;8.90;;;;;;;14.55;38.75;100849.55;109885;1246;74054;-77
2023/03/01 12:44:44;;;;;;;18.90;10.60;;;;;;;14.23;39.40;100851.96;110050;1246;67916;-76
2023/03/01 12:48:19;;;;;;;16.40;9.40;;;;;;;13.47;40.81;100855.73;110010;1246;71447;-75
2023/03/01 12:51:13;;;;;;;16.30;8.90;;;;;;;12.89;41.98;100855.33;109879;1246;58902;-76
2023/03/01 12:54:41;;;;;;;18.30;9.20;;;;;;;12.57;42.53;100855.86;109751;1246;59051;-76
2023/03/01 12:57:48;;;;;;;17.30;9.10;;;;;;;12.35;43.48;100857.11;109935;1246;72711;-76
2023/03/01 13:00:51;;;;;;;16.70;9.30;;;;;;;11.95;44.47;100853.19;109856;1248;68650;-74
2023/03/01 13:04:15;;;;;;;16.80;9.30;;;;;;;11.64;45.14;100852.33;109831;1246;72758;-75
2023/03/01 13:07:49;;;;;;;18.20;8.80;;;;;;;11.13;46.13;100851.89;109906;1246;58168;-77